createdAt,value
2017-07-03T00:00:15.785Z,0
2017-07-03T00:00:41.337Z,0
2017-07-03T00:01:06.891Z,0
2017-07-03T00:01:32.444Z,0
2017-07-03T00:01:58.007Z,0
2017-07-03T00:02:23.587Z,0
2017-07-03T00:02:49.142Z,0
2017-07-03T00:03:14.698Z,0
2017-07-03T00:04:34.059Z,0
2017-07-03T00:04:59.615Z,0
2017-07-03T00:05:25.163Z,0
2017-07-03T00:05:50.710Z,0
2017-07-03T00:06:16.277Z,0
2017-07-03T00:06:41.866Z,0
2017-07-03T00:07:07.457Z,0
2017-07-03T00:07:33.066Z,0
2017-07-03T00:07:58.621Z,0
2017-07-03T00:08:24.217Z,0
2017-07-03T00:08:49.770Z,0
2017-07-03T00:10:04.040Z,0
2017-07-03T00:10:29.598Z,0
2017-07-03T00:10:55.159Z,0
2017-07-03T00:11:20.708Z,0
2017-07-03T00:11:46.269Z,0
2017-07-03T00:12:11.831Z,0
2017-07-03T00:12:37.391Z,0
2017-07-03T00:13:02.950Z,0
2017-07-03T00:13:28.513Z,0
2017-07-03T00:13:54.076Z,0
2017-07-03T00:14:19.642Z,0
2017-07-03T00:14:45.195Z,0
2017-07-03T00:15:10.812Z,0
2017-07-03T00:15:36.418Z,0
2017-07-03T00:16:02.110Z,0
2017-07-03T00:16:27.689Z,0
2017-07-03T00:16:53.244Z,0
2017-07-03T00:17:18.821Z,0
2017-07-03T00:17:44.389Z,0
2017-07-03T00:18:09.970Z,0
2017-07-03T00:18:35.530Z,0
2017-07-03T00:19:01.083Z,0
2017-07-03T00:19:26.682Z,0
2017-07-03T00:19:52.260Z,0
2017-07-03T00:20:17.811Z,0
2017-07-03T00:20:43.362Z,0
2017-07-03T00:21:08.920Z,0
2017-07-03T00:21:34.487Z,0
2017-07-03T00:22:00.077Z,0
2017-07-03T00:23:24.644Z,0
2017-07-03T00:23:50.221Z,0
2017-07-03T00:24:15.808Z,0
2017-07-03T00:24:41.375Z,0
2017-07-03T00:25:06.920Z,0
2017-07-03T00:25:32.487Z,0
2017-07-03T00:25:58.058Z,0
2017-07-03T00:26:23.614Z,0
2017-07-03T00:26:49.381Z,0
2017-07-03T00:27:14.987Z,0
2017-07-03T00:27:40.551Z,0
2017-07-03T00:28:06.150Z,0
2017-07-03T00:28:31.719Z,0
2017-07-03T00:28:57.293Z,0
2017-07-03T00:29:22.856Z,0
2017-07-03T00:29:48.420Z,0
2017-07-03T00:30:13.988Z,0
2017-07-03T00:30:39.537Z,0
2017-07-03T00:31:05.156Z,0
2017-07-03T00:31:30.692Z,0
2017-07-03T00:31:56.307Z,0
2017-07-03T00:32:21.852Z,0
2017-07-03T00:32:47.408Z,0
2017-07-03T00:33:13.002Z,0
2017-07-03T00:33:38.628Z,0
2017-07-03T00:34:04.193Z,0
2017-07-03T00:34:29.789Z,0
2017-07-03T00:34:55.370Z,0
2017-07-03T00:35:20.931Z,0
2017-07-03T00:35:46.501Z,0
2017-07-03T00:36:12.100Z,0
2017-07-03T00:36:37.655Z,0
2017-07-03T00:37:03.242Z,0
2017-07-03T00:37:28.809Z,0
2017-07-03T00:37:54.374Z,0
2017-07-03T00:38:19.937Z,0
2017-07-03T00:38:45.607Z,0
2017-07-03T00:39:11.160Z,0
2017-07-03T00:39:36.722Z,0
2017-07-03T00:40:02.314Z,0
2017-07-03T00:40:27.871Z,0
2017-07-03T00:40:53.431Z,0
2017-07-03T00:41:18.999Z,0
2017-07-03T00:41:44.553Z,0
2017-07-03T00:42:10.177Z,0
2017-07-03T00:42:35.768Z,0
2017-07-03T00:43:01.318Z,0
2017-07-03T00:43:26.878Z,0
2017-07-03T00:43:52.469Z,0
2017-07-03T00:44:18.085Z,0
2017-07-03T00:44:43.660Z,0
2017-07-03T00:45:09.242Z,0
2017-07-03T00:45:34.808Z,0
2017-07-03T00:46:00.372Z,0
2017-07-03T00:46:25.931Z,0
2017-07-03T00:46:51.566Z,0
2017-07-03T00:47:17.128Z,0
2017-07-03T00:47:42.716Z,0
2017-07-03T00:48:08.268Z,0
2017-07-03T00:48:33.830Z,0
2017-07-03T00:48:59.389Z,0
2017-07-03T00:49:25.012Z,0
2017-07-03T00:49:50.585Z,0
2017-07-03T00:50:16.137Z,0
2017-07-03T00:50:41.826Z,0
2017-07-03T00:51:07.370Z,0
2017-07-03T00:51:32.917Z,0
2017-07-03T00:51:58.491Z,0
2017-07-03T00:52:24.037Z,0
2017-07-03T00:52:49.606Z,0
2017-07-03T00:53:15.186Z,0
2017-07-03T00:53:40.737Z,0
2017-07-03T00:54:06.294Z,0
2017-07-03T00:54:31.937Z,0
2017-07-03T00:54:57.500Z,0
2017-07-03T00:55:23.045Z,0
2017-07-03T00:55:48.662Z,0
2017-07-03T00:56:14.227Z,0
2017-07-03T00:56:39.778Z,0
2017-07-03T00:57:05.447Z,0
2017-07-03T00:57:31.066Z,0
2017-07-03T00:57:56.616Z,0
2017-07-03T00:58:22.188Z,0
2017-07-03T00:58:47.748Z,0
2017-07-03T00:59:13.299Z,0
2017-07-03T00:59:38.857Z,0
2017-07-03T01:00:04.446Z,0
2017-07-03T01:00:30.027Z,0
2017-07-03T01:00:55.581Z,0
2017-07-03T01:01:21.136Z,0
2017-07-03T01:01:46.687Z,0
2017-07-03T01:02:12.360Z,0
2017-07-03T01:02:37.930Z,0
2017-07-03T01:03:03.508Z,0
2017-07-03T01:03:29.136Z,0
2017-07-03T01:03:54.693Z,0
2017-07-03T01:04:20.254Z,0
2017-07-03T01:04:45.817Z,0
2017-07-03T01:05:11.382Z,0
2017-07-03T01:05:36.939Z,0
2017-07-03T01:06:02.491Z,0
2017-07-03T01:06:28.141Z,0
2017-07-03T01:06:53.708Z,0
2017-07-03T01:07:19.292Z,0
2017-07-03T01:07:44.836Z,0
2017-07-03T01:08:10.388Z,0
2017-07-03T01:08:35.955Z,0
2017-07-03T01:09:01.583Z,0
2017-07-03T01:09:27.140Z,0
2017-07-03T01:09:52.700Z,0
2017-07-03T01:10:18.316Z,0
2017-07-03T01:10:43.878Z,0
2017-07-03T01:11:09.446Z,0
2017-07-03T01:11:34.988Z,0
2017-07-03T01:12:00.537Z,0
2017-07-03T01:12:26.123Z,0
2017-07-03T01:12:51.789Z,0
2017-07-03T01:13:17.358Z,0
2017-07-03T01:13:42.918Z,0
2017-07-03T01:14:08.490Z,0
2017-07-03T01:14:34.052Z,0
2017-07-03T01:14:59.615Z,0
2017-07-03T01:15:25.171Z,0
2017-07-03T01:15:50.763Z,0
2017-07-03T01:16:16.320Z,0
2017-07-03T01:16:41.900Z,0
2017-07-03T01:17:07.537Z,0
2017-07-03T01:17:33.101Z,0
2017-07-03T01:17:58.650Z,0
2017-07-03T01:18:24.190Z,0
2017-07-03T01:18:49.738Z,0
2017-07-03T01:19:15.295Z,0
2017-07-03T01:19:40.850Z,0
2017-07-03T01:20:06.536Z,0
2017-07-03T01:20:32.101Z,0
2017-07-03T01:20:57.660Z,0
2017-07-03T01:21:23.241Z,0
2017-07-03T01:21:48.810Z,0
2017-07-03T01:22:14.481Z,0
2017-07-03T01:22:40.030Z,0
2017-07-03T01:23:05.628Z,0
2017-07-03T01:23:31.297Z,0
2017-07-03T01:23:56.866Z,0
2017-07-03T01:24:22.423Z,0
2017-07-03T01:24:47.971Z,0
2017-07-03T01:25:13.512Z,0
2017-07-03T01:25:39.066Z,0
2017-07-03T01:26:04.636Z,0
2017-07-03T01:26:30.197Z,0
2017-07-03T01:26:55.771Z,0
2017-07-03T01:27:21.341Z,0
2017-07-03T01:27:46.911Z,0
2017-07-03T01:28:12.510Z,0
2017-07-03T01:28:38.069Z,0
2017-07-03T01:29:03.615Z,0
2017-07-03T01:29:29.182Z,0
2017-07-03T01:29:54.998Z,0
2017-07-03T01:30:20.553Z,0
2017-07-03T01:30:46.111Z,0
2017-07-03T01:31:11.652Z,0
2017-07-03T01:31:37.219Z,0
2017-07-03T01:32:02.803Z,0
2017-07-03T01:32:28.357Z,0
2017-07-03T01:32:53.938Z,0
2017-07-03T01:33:19.501Z,0
2017-07-03T01:33:45.063Z,0
2017-07-03T01:34:10.626Z,0
2017-07-03T01:34:36.192Z,0
2017-07-03T01:35:01.864Z,0
2017-07-03T01:35:27.426Z,0
2017-07-03T01:35:52.971Z,0
2017-07-03T01:36:18.548Z,0
2017-07-03T01:36:44.113Z,0
2017-07-03T01:37:09.672Z,0
2017-07-03T01:37:35.256Z,0
2017-07-03T01:38:00.832Z,0
2017-07-03T01:38:26.433Z,0
2017-07-03T01:38:52.011Z,0
2017-07-03T01:39:17.668Z,0
2017-07-03T01:39:43.217Z,0
2017-07-03T01:40:08.796Z,0
2017-07-03T01:40:34.359Z,0
2017-07-03T01:40:59.923Z,0
2017-07-03T01:41:25.504Z,0
2017-07-03T01:41:51.169Z,0
2017-07-03T01:42:16.800Z,0
2017-07-03T01:42:42.348Z,0
2017-07-03T01:43:07.918Z,0
2017-07-03T01:43:33.482Z,0
2017-07-03T01:43:59.040Z,0
2017-07-03T01:44:24.608Z,0
2017-07-03T01:44:50.181Z,0
2017-07-03T01:45:15.738Z,0
2017-07-03T01:45:41.294Z,0
2017-07-03T01:46:06.857Z,0
2017-07-03T01:46:32.408Z,0
2017-07-03T01:46:58.029Z,0
2017-07-03T01:47:23.618Z,0
2017-07-03T01:47:49.181Z,0
2017-07-03T01:48:14.789Z,0
2017-07-03T01:48:40.351Z,0
2017-07-03T01:49:05.902Z,0
2017-07-03T01:49:31.505Z,0
2017-07-03T01:49:57.109Z,0
2017-07-03T01:50:22.669Z,0
2017-07-03T01:50:48.235Z,0
2017-07-03T01:51:13.794Z,0
2017-07-03T01:51:39.363Z,0
2017-07-03T01:52:04.932Z,0
2017-07-03T01:52:30.491Z,0
2017-07-03T01:52:56.049Z,0
2017-07-03T01:53:21.762Z,0
2017-07-03T01:53:47.363Z,0
2017-07-03T01:54:12.902Z,0
2017-07-03T01:54:38.457Z,0
2017-07-03T01:55:04.032Z,0
2017-07-03T01:55:29.585Z,0
2017-07-03T01:55:55.205Z,0
2017-07-03T01:56:20.803Z,0
2017-07-03T01:56:46.374Z,0
2017-07-03T01:57:11.941Z,0
2017-07-03T01:57:37.490Z,0
2017-07-03T01:58:03.063Z,0
2017-07-03T01:58:28.640Z,0
2017-07-03T01:58:54.214Z,0
2017-07-03T01:59:19.767Z,0
2017-07-03T01:59:45.333Z,0
2017-07-03T02:00:10.957Z,0
2017-07-03T02:00:36.510Z,0
2017-07-03T02:01:02.073Z,0
2017-07-03T02:01:27.709Z,0
2017-07-03T02:01:53.264Z,0
2017-07-03T02:02:18.887Z,0
2017-07-03T02:02:44.464Z,0
2017-07-03T02:03:10.038Z,0
2017-07-03T02:03:35.594Z,0
2017-07-03T02:04:01.169Z,0
2017-07-03T02:04:26.744Z,0
2017-07-03T02:04:52.297Z,0
2017-07-03T02:05:17.868Z,0
2017-07-03T02:05:43.431Z,0
2017-07-03T02:06:08.987Z,0
2017-07-03T02:06:34.593Z,0
2017-07-03T02:07:00.190Z,0
2017-07-03T02:07:25.741Z,0
2017-07-03T02:07:51.309Z,0
2017-07-03T02:08:16.878Z,0
2017-07-03T02:08:42.450Z,0
2017-07-03T02:09:08.001Z,0
2017-07-03T02:09:33.622Z,0
2017-07-03T02:09:59.196Z,0
2017-07-03T02:10:24.762Z,0
2017-07-03T02:10:50.306Z,0
2017-07-03T02:11:15.862Z,0
2017-07-03T02:11:41.427Z,0
2017-07-03T02:12:07.122Z,0
2017-07-03T02:12:32.678Z,0
2017-07-03T02:12:58.246Z,0
2017-07-03T02:13:23.831Z,0
2017-07-03T02:13:49.391Z,0
2017-07-03T02:14:14.969Z,0
2017-07-03T02:14:40.530Z,0
2017-07-03T02:15:06.081Z,0
2017-07-03T02:15:31.647Z,0
2017-07-03T02:15:57.211Z,0
2017-07-03T02:16:22.767Z,0
2017-07-03T02:16:48.341Z,0
2017-07-03T02:17:14.020Z,0
2017-07-03T02:17:39.593Z,0
2017-07-03T02:18:05.164Z,0
2017-07-03T02:18:30.721Z,0
2017-07-03T02:18:56.268Z,0
2017-07-03T02:19:21.837Z,0
2017-07-03T02:19:47.491Z,0
2017-07-03T02:20:13.061Z,0
2017-07-03T02:20:38.618Z,0
2017-07-03T02:21:04.191Z,0
2017-07-03T02:21:29.760Z,0
2017-07-03T02:21:55.330Z,0
2017-07-03T02:22:20.884Z,0
2017-07-03T02:22:46.484Z,0
2017-07-03T02:23:12.031Z,0
2017-07-03T02:23:37.586Z,0
2017-07-03T02:24:03.139Z,0
2017-07-03T02:24:28.757Z,0
2017-07-03T02:24:54.311Z,0
2017-07-03T02:25:19.867Z,0
2017-07-03T02:25:45.440Z,0
2017-07-03T02:26:11.063Z,0
2017-07-03T02:26:36.638Z,0
2017-07-03T02:27:02.195Z,0
2017-07-03T02:27:27.767Z,0
2017-07-03T02:27:53.451Z,0
2017-07-03T02:28:19.020Z,0
2017-07-03T02:28:44.571Z,0
2017-07-03T02:29:10.255Z,0
2017-07-03T02:29:35.813Z,0
2017-07-03T02:30:01.358Z,0
2017-07-03T02:30:26.920Z,0
2017-07-03T02:30:52.480Z,0
2017-07-03T02:31:18.043Z,0
2017-07-03T02:31:43.583Z,0
2017-07-03T02:32:09.140Z,0
2017-07-03T02:32:34.728Z,0
2017-07-03T02:33:00.386Z,0
2017-07-03T02:33:25.977Z,0
2017-07-03T02:33:51.536Z,0
2017-07-03T02:34:17.151Z,0
2017-07-03T02:34:42.720Z,0
2017-07-03T02:35:08.280Z,0
2017-07-03T02:35:33.899Z,0
2017-07-03T02:35:59.442Z,0
2017-07-03T02:36:24.986Z,0
2017-07-03T02:36:50.564Z,0
2017-07-03T02:37:16.191Z,0
2017-07-03T02:37:41.767Z,0
2017-07-03T02:38:07.358Z,0
2017-07-03T02:38:32.918Z,0
2017-07-03T02:38:58.479Z,0
2017-07-03T02:39:24.085Z,0
2017-07-03T02:39:49.642Z,0
2017-07-03T02:40:15.201Z,0
2017-07-03T02:40:40.772Z,0
2017-07-03T02:41:06.313Z,0
2017-07-03T02:41:31.871Z,0
2017-07-03T02:41:57.487Z,0
2017-07-03T02:42:23.053Z,0
2017-07-03T02:42:48.617Z,0
2017-07-03T02:43:14.248Z,0
2017-07-03T02:43:39.818Z,0
2017-07-03T02:44:05.381Z,0
2017-07-03T02:44:30.967Z,0
2017-07-03T02:44:56.593Z,0
2017-07-03T02:45:22.163Z,0
2017-07-03T02:45:47.785Z,0
2017-07-03T02:46:13.328Z,0
2017-07-03T02:46:38.889Z,0
2017-07-03T02:47:04.445Z,0
2017-07-03T02:47:30.107Z,0
2017-07-03T02:47:55.684Z,0
2017-07-03T02:48:21.247Z,0
2017-07-03T02:48:46.811Z,0
2017-07-03T02:49:12.375Z,0
2017-07-03T02:49:37.929Z,0
2017-07-03T02:50:03.513Z,0
2017-07-03T02:50:29.086Z,0
2017-07-03T02:50:54.648Z,0
2017-07-03T02:51:20.260Z,0
2017-07-03T02:51:45.806Z,0
2017-07-03T02:52:11.361Z,0
2017-07-03T02:52:36.962Z,0
2017-07-03T02:53:02.540Z,0
2017-07-03T02:53:28.108Z,0
2017-07-03T02:53:53.659Z,0
2017-07-03T02:54:19.268Z,0
2017-07-03T02:54:44.800Z,0
2017-07-03T02:55:10.350Z,0
2017-07-03T02:55:35.940Z,0
2017-07-03T02:56:01.506Z,0
2017-07-03T02:56:27.050Z,0
2017-07-03T02:56:52.607Z,0
2017-07-03T02:57:18.225Z,0
2017-07-03T02:57:43.836Z,0
2017-07-03T02:58:09.437Z,0
2017-07-03T02:58:34.989Z,0
2017-07-03T02:59:00.623Z,0
2017-07-03T02:59:26.190Z,0
2017-07-03T02:59:51.762Z,0
2017-07-03T03:00:17.310Z,0
2017-07-03T03:00:42.864Z,0
2017-07-03T03:01:08.420Z,0
2017-07-03T03:01:33.970Z,0
2017-07-03T03:01:59.529Z,0
2017-07-03T03:02:25.112Z,0
2017-07-03T03:02:50.746Z,0
2017-07-03T03:03:16.297Z,0
2017-07-03T03:03:41.853Z,0
2017-07-03T03:04:07.426Z,0
2017-07-03T03:04:32.982Z,4
2017-07-03T03:04:58.533Z,4
2017-07-03T03:05:24.249Z,4
2017-07-03T03:05:49.849Z,4
2017-07-03T03:06:15.419Z,4
2017-07-03T03:06:40.977Z,4
2017-07-03T03:07:06.607Z,4
2017-07-03T03:07:32.179Z,4
2017-07-03T03:07:57.733Z,4
2017-07-03T03:08:23.412Z,4
2017-07-03T03:08:48.987Z,4
2017-07-03T03:09:14.557Z,4
2017-07-03T03:09:40.177Z,4
2017-07-03T03:10:05.777Z,4
2017-07-03T03:10:31.348Z,4
2017-07-03T03:10:56.904Z,0
2017-07-03T03:11:22.457Z,0
2017-07-03T03:11:48.019Z,0
2017-07-03T03:12:13.569Z,0
2017-07-03T03:12:39.133Z,0
2017-07-03T03:13:04.676Z,0
2017-07-03T03:13:30.240Z,0
2017-07-03T03:13:55.803Z,0
2017-07-03T03:14:21.401Z,0
2017-07-03T03:14:46.960Z,0
2017-07-03T03:15:12.621Z,0
2017-07-03T03:15:38.242Z,4
2017-07-03T03:16:03.803Z,4
2017-07-03T03:16:29.358Z,4
2017-07-03T03:16:54.913Z,4
2017-07-03T03:17:20.475Z,4
2017-07-03T03:17:46.127Z,4
2017-07-03T03:18:11.687Z,4
2017-07-03T03:18:37.259Z,4
2017-07-03T03:19:02.806Z,4
2017-07-03T03:19:28.371Z,4
2017-07-03T03:19:53.925Z,4
2017-07-03T03:20:19.580Z,4
2017-07-03T03:20:45.139Z,4
2017-07-03T03:21:10.694Z,4
2017-07-03T03:21:36.282Z,4
2017-07-03T03:22:01.809Z,4
2017-07-03T03:22:27.364Z,4
2017-07-03T03:22:52.945Z,4
2017-07-03T03:23:18.518Z,4
2017-07-03T03:23:44.067Z,4
2017-07-03T03:24:09.639Z,4
2017-07-03T03:24:35.212Z,0
2017-07-03T03:25:00.809Z,4
2017-07-03T03:25:26.444Z,4
2017-07-03T03:25:52.097Z,4
2017-07-03T03:26:17.654Z,4
2017-07-03T03:26:43.220Z,4
2017-07-03T03:27:08.766Z,4
2017-07-03T03:27:34.345Z,4
2017-07-03T03:27:59.943Z,4
2017-07-03T03:28:25.482Z,4
2017-07-03T03:28:51.039Z,4
2017-07-03T03:29:16.660Z,4
2017-07-03T03:29:42.231Z,4
2017-07-03T03:30:07.809Z,4
2017-07-03T03:30:33.381Z,4
2017-07-03T03:30:59.021Z,4
2017-07-03T03:31:24.554Z,4
2017-07-03T03:31:50.130Z,4
2017-07-03T03:32:15.690Z,4
2017-07-03T03:32:41.242Z,4
2017-07-03T03:33:06.809Z,4
2017-07-03T03:33:32.391Z,4
2017-07-03T03:33:57.948Z,4
2017-07-03T03:34:23.543Z,8
2017-07-03T03:34:49.126Z,8
2017-07-03T03:35:14.697Z,8
2017-07-03T03:35:40.261Z,8
2017-07-03T03:36:05.891Z,8
2017-07-03T03:36:31.455Z,8
2017-07-03T03:36:57.013Z,8
2017-07-03T03:37:22.584Z,8
2017-07-03T03:37:48.141Z,8
2017-07-03T03:38:13.772Z,8
2017-07-03T03:38:39.322Z,8
2017-07-03T03:39:04.955Z,8
2017-07-03T03:39:30.519Z,8
2017-07-03T03:39:56.135Z,8
2017-07-03T03:40:21.685Z,4
2017-07-03T03:40:47.237Z,4
2017-07-03T03:41:12.936Z,4
2017-07-03T03:41:38.512Z,4
2017-07-03T03:42:04.077Z,4
2017-07-03T03:42:29.626Z,4
2017-07-03T03:42:55.186Z,4
2017-07-03T03:43:20.738Z,4
2017-07-03T03:43:46.319Z,4
2017-07-03T03:44:11.892Z,4
2017-07-03T03:44:37.446Z,4
2017-07-03T03:45:03.030Z,4
2017-07-03T03:45:28.603Z,4
2017-07-03T03:45:54.149Z,8
2017-07-03T03:46:19.814Z,8
2017-07-03T03:46:45.406Z,8
2017-07-03T03:47:10.973Z,8
2017-07-03T03:47:36.515Z,8
2017-07-03T03:48:02.164Z,8
2017-07-03T03:48:27.734Z,8
2017-07-03T03:48:53.283Z,8
2017-07-03T03:49:18.844Z,8
2017-07-03T03:49:44.420Z,8
2017-07-03T03:50:09.990Z,8
2017-07-03T03:50:35.586Z,8
2017-07-03T03:51:01.118Z,8
2017-07-03T03:51:26.684Z,8
2017-07-03T03:51:52.264Z,8
2017-07-03T03:52:17.837Z,8
2017-07-03T03:52:43.369Z,8
2017-07-03T03:53:09.021Z,8
2017-07-03T03:53:34.589Z,8
2017-07-03T03:54:00.165Z,8
2017-07-03T03:54:25.729Z,12
2017-07-03T03:54:51.284Z,12
2017-07-03T03:55:16.849Z,8
2017-07-03T03:55:42.499Z,8
2017-07-03T03:56:08.059Z,8
2017-07-03T03:56:33.606Z,8
2017-07-03T03:56:59.236Z,8
2017-07-03T03:57:24.787Z,8
2017-07-03T03:57:50.348Z,8
2017-07-03T03:58:15.911Z,8
2017-07-03T03:58:41.632Z,8
2017-07-03T03:59:07.183Z,8
2017-07-03T03:59:32.782Z,8
2017-07-03T03:59:58.329Z,8
2017-07-03T04:00:23.916Z,8
2017-07-03T04:00:49.609Z,12
2017-07-03T04:01:15.278Z,12
2017-07-03T04:01:40.830Z,12
2017-07-03T04:02:06.432Z,12
2017-07-03T04:02:31.979Z,12
2017-07-03T04:02:57.537Z,12
2017-07-03T04:03:23.109Z,12
2017-07-03T04:03:48.756Z,8
2017-07-03T04:04:14.310Z,8
2017-07-03T04:04:39.860Z,8
2017-07-03T04:05:05.420Z,8
2017-07-03T04:05:31.152Z,8
2017-07-03T04:05:56.704Z,8
2017-07-03T04:06:22.253Z,8
2017-07-03T04:06:47.817Z,8
2017-07-03T04:07:13.400Z,12
2017-07-03T04:07:38.962Z,12
2017-07-03T04:08:04.563Z,12
2017-07-03T04:08:30.105Z,12
2017-07-03T04:08:55.659Z,12
2017-07-03T04:09:21.211Z,12
2017-07-03T04:09:46.759Z,12
2017-07-03T04:10:12.334Z,12
2017-07-03T04:10:37.891Z,12
2017-07-03T04:11:03.452Z,12
2017-07-03T04:11:29.123Z,12
2017-07-03T04:11:54.765Z,12
2017-07-03T04:12:20.344Z,8
2017-07-03T04:12:45.886Z,8
2017-07-03T04:13:11.453Z,8
2017-07-03T04:13:37.016Z,8
2017-07-03T04:14:02.606Z,8
2017-07-03T04:14:28.252Z,12
2017-07-03T04:14:53.842Z,12
2017-07-03T04:15:19.398Z,12
2017-07-03T04:15:45.010Z,12
2017-07-03T04:16:10.628Z,12
2017-07-03T04:16:36.179Z,12
2017-07-03T04:17:01.753Z,12
2017-07-03T04:17:27.390Z,12
2017-07-03T04:17:53.030Z,12
2017-07-03T04:18:18.606Z,12
2017-07-03T04:18:44.154Z,12
2017-07-03T04:19:09.720Z,12
2017-07-03T04:19:35.278Z,16
2017-07-03T04:20:00.840Z,16
2017-07-03T04:20:26.479Z,16
2017-07-03T04:20:52.048Z,16
2017-07-03T04:21:17.611Z,16
2017-07-03T04:21:43.168Z,16
2017-07-03T04:22:08.740Z,16
2017-07-03T04:22:34.310Z,16
2017-07-03T04:22:59.933Z,16
2017-07-03T04:23:25.537Z,16
2017-07-03T04:23:51.107Z,16
2017-07-03T04:24:16.698Z,12
2017-07-03T04:24:42.257Z,12
2017-07-03T04:25:07.804Z,12
2017-07-03T04:25:33.396Z,12
2017-07-03T04:25:58.987Z,12
2017-07-03T04:26:24.542Z,12
2017-07-03T04:26:50.118Z,12
2017-07-03T04:27:15.685Z,12
2017-07-03T04:27:41.250Z,12
2017-07-03T04:28:06.815Z,12
2017-07-03T04:28:32.379Z,12
2017-07-03T04:28:57.949Z,12
2017-07-03T04:29:23.605Z,16
2017-07-03T04:29:49.177Z,16
2017-07-03T04:30:14.726Z,16
2017-07-03T04:30:40.287Z,16
2017-07-03T04:31:05.855Z,16
2017-07-03T04:31:31.411Z,16
2017-07-03T04:31:56.985Z,16
2017-07-03T04:32:22.599Z,16
2017-07-03T04:32:48.155Z,16
2017-07-03T04:33:13.795Z,16
2017-07-03T04:33:39.399Z,16
2017-07-03T04:34:04.998Z,16
2017-07-03T04:34:30.553Z,16
2017-07-03T04:34:56.108Z,16
2017-07-03T04:35:21.658Z,16
2017-07-03T04:35:47.212Z,16
2017-07-03T04:36:12.798Z,16
2017-07-03T04:36:38.370Z,16
2017-07-03T04:37:03.924Z,12
2017-07-03T04:37:29.490Z,12
2017-07-03T04:37:55.056Z,12
2017-07-03T04:38:20.671Z,16
2017-07-03T04:38:46.232Z,16
2017-07-03T04:39:11.768Z,16
2017-07-03T04:39:37.401Z,16
2017-07-03T04:40:02.969Z,16
2017-07-03T04:40:28.531Z,16
2017-07-03T04:40:54.148Z,16
2017-07-03T04:41:19.709Z,16
2017-07-03T04:41:45.270Z,28
2017-07-03T04:42:10.817Z,36
2017-07-03T04:42:36.389Z,32
2017-07-03T04:43:01.940Z,32
2017-07-03T04:43:27.493Z,36
2017-07-03T04:43:53.045Z,36
2017-07-03T04:44:18.611Z,32
2017-07-03T04:44:44.190Z,36
2017-07-03T04:45:09.741Z,36
2017-07-03T04:45:35.322Z,36
2017-07-03T04:46:00.967Z,36
2017-07-03T04:46:26.551Z,36
2017-07-03T04:46:52.136Z,36
2017-07-03T04:47:17.715Z,36
2017-07-03T04:47:43.301Z,36
2017-07-03T04:48:08.869Z,32
2017-07-03T04:48:34.465Z,36
2017-07-03T04:49:00.018Z,36
2017-07-03T04:49:25.580Z,36
2017-07-03T04:49:51.160Z,36
2017-07-03T04:50:16.866Z,36
2017-07-03T04:50:42.437Z,36
2017-07-03T04:51:07.989Z,36
2017-07-03T04:51:33.560Z,36
2017-07-03T04:51:59.182Z,36
2017-07-03T04:52:24.740Z,36
2017-07-03T04:52:50.296Z,36
2017-07-03T04:53:15.922Z,36
2017-07-03T04:53:41.476Z,36
2017-07-03T04:54:07.097Z,36
2017-07-03T04:54:32.651Z,36
2017-07-03T04:54:58.215Z,36
2017-07-03T04:55:23.808Z,36
2017-07-03T04:55:49.431Z,36
2017-07-03T04:56:14.986Z,36
2017-07-03T04:56:40.550Z,36
2017-07-03T04:57:06.123Z,36
2017-07-03T04:57:31.659Z,36
2017-07-03T04:57:57.234Z,36
2017-07-03T04:58:22.856Z,36
2017-07-03T04:58:48.414Z,36
2017-07-03T04:59:13.990Z,36
2017-07-03T04:59:39.619Z,36
2017-07-03T05:00:05.157Z,36
2017-07-03T05:00:30.724Z,36
2017-07-03T05:00:56.307Z,36
2017-07-03T05:01:21.880Z,36
2017-07-03T05:01:47.458Z,36
2017-07-03T05:02:13.013Z,36
2017-07-03T05:02:38.580Z,40
2017-07-03T05:03:04.136Z,40
2017-07-03T05:03:29.823Z,36
2017-07-03T05:03:55.405Z,40
2017-07-03T05:04:20.954Z,40
2017-07-03T05:04:46.595Z,40
2017-07-03T05:05:12.138Z,40
2017-07-03T05:05:37.699Z,40
2017-07-03T05:06:03.307Z,40
2017-07-03T05:06:28.879Z,40
2017-07-03T05:06:54.432Z,40
2017-07-03T05:07:20.021Z,40
2017-07-03T05:07:45.581Z,36
2017-07-03T05:08:11.136Z,36
2017-07-03T05:08:36.754Z,36
2017-07-03T05:09:02.319Z,36
2017-07-03T05:09:27.886Z,36
2017-07-03T05:09:53.455Z,36
2017-07-03T05:10:19.088Z,36
2017-07-03T05:10:44.646Z,40
2017-07-03T05:11:10.239Z,40
2017-07-03T05:11:35.808Z,40
2017-07-03T05:12:01.378Z,40
2017-07-03T05:12:26.930Z,40
2017-07-03T05:12:52.578Z,40
2017-07-03T05:13:18.150Z,40
2017-07-03T05:13:43.716Z,44
2017-07-03T05:14:09.282Z,40
2017-07-03T05:14:34.889Z,44
2017-07-03T05:15:00.470Z,48
2017-07-03T05:15:26.027Z,48
2017-07-03T05:15:51.577Z,52
2017-07-03T05:16:17.135Z,52
2017-07-03T05:16:42.688Z,56
2017-07-03T05:17:08.229Z,56
2017-07-03T05:17:33.852Z,64
2017-07-03T05:17:59.472Z,64
2017-07-03T05:18:25.042Z,68
2017-07-03T05:18:50.603Z,72
2017-07-03T05:19:16.213Z,76
2017-07-03T05:19:41.789Z,80
2017-07-03T05:20:07.359Z,88
2017-07-03T05:20:32.921Z,92
2017-07-03T05:20:58.478Z,96
2017-07-03T05:21:24.041Z,96
2017-07-03T05:21:49.674Z,104
2017-07-03T05:22:15.248Z,104
2017-07-03T05:22:40.839Z,108
2017-07-03T05:23:06.371Z,108
2017-07-03T05:23:31.979Z,116
2017-07-03T05:23:57.533Z,120
2017-07-03T05:24:23.115Z,124
2017-07-03T05:24:48.687Z,128
2017-07-03T05:25:14.249Z,128
2017-07-03T05:25:39.820Z,136
2017-07-03T05:26:05.403Z,136
2017-07-03T05:26:30.972Z,136
2017-07-03T05:27:45.295Z,148
2017-07-03T05:28:10.850Z,148
2017-07-03T05:28:36.494Z,148
2017-07-03T05:29:02.130Z,152
2017-07-03T05:29:27.675Z,152
2017-07-03T05:29:53.281Z,156
2017-07-03T05:30:18.816Z,156
2017-07-03T05:30:44.380Z,156
2017-07-03T05:31:09.929Z,156
2017-07-03T05:31:35.507Z,156
2017-07-03T05:32:01.060Z,156
2017-07-03T05:32:26.622Z,156
2017-07-03T05:32:52.208Z,156
2017-07-03T05:33:17.764Z,160
2017-07-03T05:33:43.409Z,156
2017-07-03T05:34:09.046Z,160
2017-07-03T05:34:34.616Z,160
2017-07-03T05:35:00.168Z,164
2017-07-03T05:35:25.869Z,160
2017-07-03T05:35:51.393Z,164
2017-07-03T05:36:16.938Z,164
2017-07-03T05:36:42.489Z,160
2017-07-03T05:37:08.051Z,160
2017-07-03T05:37:33.603Z,160
2017-07-03T05:37:59.257Z,160
2017-07-03T05:38:24.820Z,160
2017-07-03T05:38:50.371Z,160
2017-07-03T05:39:15.939Z,160
2017-07-03T05:39:41.572Z,156
2017-07-03T05:40:07.126Z,156
2017-07-03T05:40:32.744Z,160
2017-07-03T05:40:58.303Z,160
2017-07-03T05:41:23.861Z,160
2017-07-03T05:41:49.410Z,160
2017-07-03T05:42:14.985Z,160
2017-07-03T05:42:40.543Z,160
2017-07-03T05:43:06.165Z,160
2017-07-03T05:43:31.723Z,160
2017-07-03T05:43:57.279Z,164
2017-07-03T05:44:22.847Z,164
2017-07-03T05:44:48.517Z,160
2017-07-03T05:45:14.076Z,160
2017-07-03T05:45:39.628Z,160
2017-07-03T05:46:05.277Z,128
2017-07-03T05:46:30.837Z,160
2017-07-03T05:46:56.441Z,164
2017-07-03T05:47:22.116Z,160
2017-07-03T05:47:47.673Z,160
2017-07-03T05:48:13.219Z,148
2017-07-03T05:48:38.793Z,136
2017-07-03T05:49:04.364Z,76
2017-07-03T05:49:29.929Z,132
2017-07-03T05:49:55.675Z,100
2017-07-03T05:50:21.235Z,160
2017-07-03T05:50:46.812Z,120
2017-07-03T05:51:12.376Z,88
2017-07-03T05:51:37.978Z,128
2017-07-03T05:52:03.522Z,84
2017-07-03T05:52:29.086Z,152
2017-07-03T05:52:54.656Z,156
2017-07-03T05:53:20.208Z,152
2017-07-03T05:53:45.769Z,140
2017-07-03T05:54:11.333Z,156
2017-07-03T05:54:36.887Z,128
2017-07-03T05:55:02.557Z,136
2017-07-03T05:55:28.101Z,124
2017-07-03T05:55:53.663Z,80
2017-07-03T05:56:19.204Z,88
2017-07-03T05:56:45.018Z,136
2017-07-03T05:57:10.571Z,68
2017-07-03T05:57:36.143Z,64
2017-07-03T05:58:01.721Z,64
2017-07-03T05:58:27.349Z,64
2017-07-03T05:58:53.000Z,72
2017-07-03T05:59:18.564Z,68
2017-07-03T05:59:44.108Z,76
2017-07-03T06:00:09.678Z,64
2017-07-03T06:00:35.230Z,80
2017-07-03T06:01:00.796Z,144
2017-07-03T06:01:26.352Z,92
2017-07-03T06:01:51.927Z,132
2017-07-03T06:02:17.509Z,76
2017-07-03T06:02:43.092Z,84
2017-07-03T06:03:08.642Z,92
2017-07-03T06:03:34.246Z,92
2017-07-03T06:03:59.854Z,68
2017-07-03T06:04:25.418Z,68
2017-07-03T06:04:50.979Z,100
2017-07-03T06:05:16.585Z,60
2017-07-03T06:05:42.146Z,56
2017-07-03T06:06:07.751Z,128
2017-07-03T06:06:33.312Z,60
2017-07-03T06:06:58.916Z,64
2017-07-03T06:07:24.413Z,120
2017-07-03T06:07:50.119Z,128
2017-07-03T06:08:15.692Z,128
2017-07-03T06:08:41.237Z,92
2017-07-03T06:09:06.858Z,128
2017-07-03T06:09:32.384Z,108
2017-07-03T06:09:57.968Z,80
2017-07-03T06:10:23.603Z,84
2017-07-03T06:10:49.216Z,68
2017-07-03T06:11:14.772Z,116
2017-07-03T06:11:40.355Z,80
2017-07-03T06:12:05.935Z,88
2017-07-03T06:12:31.489Z,116
2017-07-03T06:12:57.048Z,116
2017-07-03T06:13:22.669Z,116
2017-07-03T06:13:48.228Z,116
2017-07-03T06:14:13.815Z,116
2017-07-03T06:14:39.384Z,116
2017-07-03T06:15:04.930Z,116
2017-07-03T06:15:30.561Z,112